createdAt,value
2019-01-11T00:01:14.192Z,97416.49
2019-01-11T00:03:40.037Z,97416.92
2019-01-11T00:06:05.866Z,97416.56
2019-01-11T00:08:31.721Z,97422.05
2019-01-11T00:10:57.560Z,97414.80
2019-01-11T00:13:23.532Z,97403.73
2019-01-11T00:15:49.411Z,97407.04
2019-01-11T00:18:15.240Z,97411.35
2019-01-11T00:20:41.426Z,97410.67
2019-01-11T00:23:07.401Z,97412.14
2019-01-11T00:25:33.322Z,97410.13
2019-01-11T00:27:59.241Z,97410.39
2019-01-11T00:30:25.063Z,97395.73
2019-01-11T00:32:50.900Z,97404.59
2019-01-11T00:35:17.074Z,97408.58
2019-01-11T00:37:42.889Z,97408.16
2019-01-11T00:40:08.714Z,97401.10
2019-01-11T00:42:34.546Z,97404.84
2019-01-11T00:45:00.558Z,97406.47
2019-01-11T00:47:26.496Z,97404.52
2019-01-11T00:49:52.303Z,97400.55
2019-01-11T00:52:18.126Z,97403.13
2019-01-11T00:54:43.935Z,97407.23
2019-01-11T00:57:09.760Z,97400.44
2019-01-11T00:59:35.582Z,97400.37
2019-01-11T01:02:01.438Z,97403.31
2019-01-11T01:04:27.276Z,97402.95
2019-01-11T01:06:53.105Z,97405.93
2019-01-11T01:09:18.932Z,97413.19
2019-01-11T01:11:44.860Z,97406.22
2019-01-11T01:14:10.696Z,97411.47
2019-01-11T01:16:36.553Z,97408.20
2019-01-11T01:19:02.563Z,97406.55
2019-01-11T01:21:28.430Z,97408.80
2019-01-11T01:23:54.407Z,97409.13
2019-01-11T01:26:20.242Z,97414.88
2019-01-11T01:28:46.095Z,97418.82
2019-01-11T01:31:11.890Z,97417.81
2019-01-11T01:33:37.852Z,97414.55
2019-01-11T01:36:03.750Z,97414.73
2019-01-11T01:38:29.604Z,97415.92
2019-01-11T01:40:55.452Z,97414.89
2019-01-11T01:43:21.272Z,97414.50
2019-01-11T01:45:47.109Z,97413.55
2019-01-11T01:48:12.925Z,97412.48
2019-01-11T01:50:38.784Z,97415.16
2019-01-11T01:53:04.605Z,97413.77
2019-01-11T01:55:30.445Z,97411.88
2019-01-11T01:57:56.307Z,97416.72
2019-01-11T02:00:22.169Z,97410.30
2019-01-11T02:02:47.985Z,97403.83
2019-01-11T02:05:14.112Z,97403.83
2019-01-11T02:07:39.992Z,97406.94
2019-01-11T02:10:08.708Z,97410.74
2019-01-11T02:12:34.613Z,97411.09
2019-01-11T02:15:00.476Z,97406.39
2019-01-11T02:17:27.184Z,97407.69
2019-01-11T02:19:53.038Z,97406.10
2019-01-11T02:22:18.961Z,97406.27
2019-01-11T02:24:44.788Z,97408.58
2019-01-11T02:27:10.693Z,97412.81
2019-01-11T02:29:36.528Z,97408.86
2019-01-11T02:32:02.354Z,97409.24
2019-01-11T02:34:28.191Z,97405.55
2019-01-11T02:36:54.035Z,97409.00
2019-01-11T02:39:19.956Z,97405.09
2019-01-11T02:41:45.907Z,97402.53
2019-01-11T02:44:11.736Z,97399.17
2019-01-11T02:46:37.559Z,97391.55
2019-01-11T02:49:03.369Z,97391.62
2019-01-11T02:51:29.186Z,97387.66
2019-01-11T02:53:55.017Z,97382.35
2019-01-11T02:56:20.838Z,97388.77
2019-01-11T02:58:46.684Z,97395.00
2019-01-11T03:01:12.524Z,97386.59
2019-01-11T03:03:38.353Z,97389.97
2019-01-11T03:06:04.269Z,97392.19
2019-01-11T03:08:30.078Z,97389.84
2019-01-11T03:10:55.949Z,97390.89
2019-01-11T03:13:21.732Z,97388.16
2019-01-11T03:15:47.576Z,97390.30
2019-01-11T03:18:13.418Z,97391.61
2019-01-11T03:20:39.253Z,97390.12
2019-01-11T03:23:05.070Z,97387.95
2019-01-11T03:25:30.925Z,97388.02
2019-01-11T03:27:56.771Z,97386.32
2019-01-11T03:30:22.624Z,97381.98
2019-01-11T03:32:48.464Z,97375.23
2019-01-11T03:35:14.978Z,97369.19
2019-01-11T03:37:41.115Z,97370.93
2019-01-11T03:40:10.145Z,97371.98
2019-01-11T03:42:35.992Z,97373.94
2019-01-11T03:45:03.610Z,97377.16
2019-01-11T03:47:29.469Z,97376.66
2019-01-11T03:49:55.290Z,97372.92
2019-01-11T03:52:21.256Z,97367.87
2019-01-11T03:54:47.055Z,97368.94
2019-01-11T03:57:12.894Z,97364.05
2019-01-11T03:59:38.722Z,97360.05
2019-01-11T04:02:04.575Z,97360.48
2019-01-11T04:04:30.451Z,97360.33
2019-01-11T04:06:56.254Z,97349.75
2019-01-11T04:09:22.095Z,97350.03
2019-01-11T04:11:47.912Z,97356.79
2019-01-11T04:14:13.784Z,97359.70
2019-01-11T04:16:39.600Z,97357.39
2019-01-11T04:19:06.972Z,97362.13
2019-01-11T04:21:32.812Z,97338.35
2019-01-11T04:23:58.699Z,97352.62
2019-01-11T04:26:24.530Z,97356.66
2019-01-11T04:28:50.477Z,97359.75
2019-01-11T04:31:16.348Z,97357.80
2019-01-11T04:33:42.169Z,97363.52
2019-01-11T04:36:08.009Z,97361.77
2019-01-11T04:38:33.842Z,97362.63
2019-01-11T04:40:59.693Z,97365.66
2019-01-11T04:43:25.501Z,97365.82
2019-01-11T04:45:51.355Z,97361.84
2019-01-11T04:48:17.172Z,97364.52
2019-01-11T04:50:42.989Z,97353.16
2019-01-11T04:53:08.816Z,97361.78
2019-01-11T04:55:34.662Z,97358.91
2019-01-11T04:58:00.480Z,97358.97
2019-01-11T05:00:26.288Z,97358.40
2019-01-11T05:02:52.225Z,97353.51
2019-01-11T05:05:18.131Z,97352.40
2019-01-11T05:07:43.972Z,97351.41
2019-01-11T05:10:12.685Z,97348.73
2019-01-11T05:12:38.604Z,97348.23
2019-01-11T05:15:05.412Z,97348.95
2019-01-11T05:17:31.258Z,97349.27
2019-01-11T05:19:57.256Z,97348.33
2019-01-11T05:22:23.230Z,97350.92
2019-01-11T05:24:49.084Z,97341.06
2019-01-11T05:27:14.939Z,97339.33
2019-01-11T05:29:40.741Z,97339.11
2019-01-11T05:32:06.560Z,97331.28
2019-01-11T05:34:32.491Z,97338.83
2019-01-11T05:36:58.312Z,97336.68
2019-01-11T05:39:24.257Z,97335.03
2019-01-11T05:41:50.085Z,97332.45
2019-01-11T05:44:16.110Z,97330.86
2019-01-11T05:46:41.935Z,97328.19
2019-01-11T05:49:07.784Z,97326.25
2019-01-11T05:51:33.603Z,97324.95
2019-01-11T05:53:59.437Z,97322.38
2019-01-11T05:56:25.245Z,97314.73
2019-01-11T05:58:52.992Z,97315.84
2019-01-11T06:01:18.828Z,97321.81
2019-01-11T06:03:44.647Z,97315.34
2019-01-11T06:06:10.781Z,97321.24
2019-01-11T06:08:36.597Z,97317.77
2019-01-11T06:11:02.427Z,97314.39
2019-01-11T06:13:28.372Z,97312.19
2019-01-11T06:15:54.624Z,97304.20
2019-01-11T06:18:20.439Z,97309.16
2019-01-11T06:20:46.277Z,97318.14
2019-01-11T06:23:12.100Z,97314.55
2019-01-11T06:25:38.050Z,97305.14
2019-01-11T06:28:03.907Z,97312.97
2019-01-11T06:30:29.849Z,97312.24
2019-01-11T06:32:55.771Z,97316.63
2019-01-11T06:35:21.613Z,97321.08
2019-01-11T06:37:47.432Z,97325.47
2019-01-11T06:40:13.278Z,97221.31
2019-01-11T06:42:39.115Z,97317.70
2019-01-11T06:45:07.951Z,97328.69
2019-01-11T06:47:33.804Z,97318.48
2019-01-11T06:49:59.628Z,97316.75
2019-01-11T06:52:25.457Z,97321.59
2019-01-11T06:54:51.342Z,97322.59
2019-01-11T06:57:17.217Z,97322.00
2019-01-11T06:59:43.049Z,97328.41
2019-01-11T07:02:09.332Z,97325.37
2019-01-11T07:04:35.165Z,97327.11
2019-01-11T07:07:01.134Z,97326.77
2019-01-11T07:09:26.957Z,97322.25
2019-01-11T07:11:52.887Z,97322.95
2019-01-11T07:14:18.815Z,97326.20
2019-01-11T07:16:44.669Z,97336.11
2019-01-11T07:19:10.528Z,97319.22
2019-01-11T07:21:36.688Z,97319.22
2019-01-11T07:24:02.766Z,97325.63
2019-01-11T07:26:28.578Z,97329.09
2019-01-11T07:28:54.425Z,97327.08
2019-01-11T07:31:20.261Z,97325.50
2019-01-11T07:33:46.122Z,97332.75
2019-01-11T07:36:17.175Z,97330.23
2019-01-11T07:38:43.008Z,97325.06
2019-01-11T07:41:08.954Z,97324.49
2019-01-11T07:43:34.832Z,97326.70
2019-01-11T07:46:01.460Z,97321.23
2019-01-11T07:48:27.310Z,97321.11
2019-01-11T07:50:53.146Z,97325.21
2019-01-11T07:53:18.962Z,97322.91
2019-01-11T07:55:44.852Z,97321.90
2019-01-11T07:58:10.690Z,97322.19
2019-01-11T08:00:36.535Z,97314.42
2019-01-11T08:03:02.533Z,97314.64
2019-01-11T08:05:28.370Z,97308.96
2019-01-11T08:07:54.287Z,97306.66
2019-01-11T08:10:20.153Z,97308.96
2019-01-11T08:12:45.971Z,97298.67
2019-01-11T08:15:15.513Z,97301.20
2019-01-11T08:17:41.349Z,97295.20
2019-01-11T08:20:07.578Z,97306.50
2019-01-11T08:22:35.324Z,97294.19
2019-01-11T08:25:03.342Z,97300.09
2019-01-11T08:27:29.186Z,97293.55
2019-01-11T08:29:55.005Z,97290.97
2019-01-11T08:32:20.881Z,97291.47
2019-01-11T08:34:46.776Z,97288.50
2019-01-11T08:37:13.090Z,97291.58
2019-01-11T08:39:38.934Z,97294.35
2019-01-11T08:42:04.951Z,97294.90
2019-01-11T08:44:30.880Z,97294.73
2019-01-11T08:46:56.725Z,97292.88
2019-01-11T08:49:22.572Z,97295.47
2019-01-11T08:51:48.413Z,97293.45
2019-01-11T08:54:14.251Z,97291.47
2019-01-11T08:56:40.064Z,97295.92
2019-01-11T08:59:05.962Z,97306.62
2019-01-11T09:01:31.792Z,97302.30
2019-01-11T09:03:57.637Z,97303.68
2019-01-11T09:06:23.840Z,97308.41
2019-01-11T09:08:49.661Z,97303.96
2019-01-11T09:11:15.515Z,97306.61
2019-01-11T09:13:41.325Z,97294.24
2019-01-11T09:16:07.149Z,97296.83
2019-01-11T09:18:34.887Z,97297.77
2019-01-11T09:21:00.934Z,97302.28
2019-01-11T09:23:26.953Z,97297.40
2019-01-11T09:25:52.803Z,97308.35
2019-01-11T09:28:18.612Z,97301.44
2019-01-11T09:30:44.440Z,97298.46
2019-01-11T09:33:10.272Z,97296.52
2019-01-11T09:35:36.108Z,97300.02
2019-01-11T09:38:01.935Z,97295.93
2019-01-11T09:40:27.777Z,97297.39
2019-01-11T09:42:53.717Z,97291.25
2019-01-11T09:45:19.531Z,97303.79
2019-01-11T09:47:45.795Z,97296.52
2019-01-11T09:50:11.953Z,97304.64
2019-01-11T09:52:37.790Z,97298.56
2019-01-11T09:55:05.049Z,97302.87
2019-01-11T09:57:30.910Z,97306.38
2019-01-11T09:59:56.774Z,97295.45
2019-01-11T10:02:24.550Z,97305.64
2019-01-11T10:04:50.321Z,97301.47
2019-01-11T10:07:26.740Z,97301.92
2019-01-11T10:09:52.598Z,97290.44
2019-01-11T10:12:18.443Z,97298.50
2019-01-11T10:14:44.479Z,97293.61
2019-01-11T10:17:10.285Z,97294.45
2019-01-11T10:19:36.118Z,97295.05
2019-01-11T10:22:02.045Z,97293.02
2019-01-11T10:24:27.906Z,97307.27
2019-01-11T10:26:53.716Z,97277.05
2019-01-11T10:29:19.554Z,97268.27
2019-01-11T10:31:45.473Z,97264.25
2019-01-11T10:34:11.331Z,97262.22
2019-01-11T10:36:37.156Z,97273.09
2019-01-11T10:39:05.612Z,97264.08
2019-01-11T10:41:31.524Z,97260.45
2019-01-11T10:43:57.349Z,97262.86
2019-01-11T10:46:33.102Z,97264.72
2019-01-11T10:48:58.934Z,97261.40
2019-01-11T10:51:28.251Z,97257.79
2019-01-11T10:53:52.994Z,97258.70
2019-01-11T10:56:18.816Z,97256.16
2019-01-11T10:58:44.756Z,97250.75
2019-01-11T11:01:10.606Z,97246.49
2019-01-11T11:03:36.445Z,97249.73
2019-01-11T11:06:02.292Z,97244.29
2019-01-11T11:08:28.135Z,97239.30
2019-01-11T11:10:54.028Z,97247.13
2019-01-11T11:13:19.871Z,97238.31
2019-01-11T11:15:47.144Z,97236.30
2019-01-11T11:18:12.964Z,97234.63
2019-01-11T11:20:38.800Z,97231.57
2019-01-11T11:23:04.630Z,97226.16
2019-01-11T11:25:30.576Z,97215.38
2019-01-11T11:27:56.419Z,97218.70
2019-01-11T11:30:22.352Z,97208.92
2019-01-11T11:32:50.086Z,97218.33
2019-01-11T11:35:15.924Z,97216.34
2019-01-11T11:37:41.764Z,97215.17
2019-01-11T11:40:07.991Z,97203.00
2019-01-11T11:42:33.835Z,97206.02
2019-01-11T11:44:59.639Z,97210.14
2019-01-11T11:47:25.447Z,97204.73
2019-01-11T11:49:51.319Z,97204.17
2019-01-11T11:52:17.185Z,97198.61
2019-01-11T11:54:43.031Z,97199.95
2019-01-11T11:57:08.852Z,97187.45
2019-01-11T11:59:34.703Z,97180.37
2019-01-11T12:02:00.534Z,97179.02
2019-01-11T12:04:26.373Z,97181.63
2019-01-11T12:06:52.252Z,97177.96
2019-01-11T12:09:18.126Z,97195.55
2019-01-11T12:11:43.945Z,97168.84
2019-01-11T12:14:09.787Z,97167.03
2019-01-11T12:16:35.615Z,97165.23
2019-01-11T12:19:01.464Z,97158.01
2019-01-11T12:21:27.324Z,97153.77
2019-01-11T12:23:53.169Z,97158.82
2019-01-11T12:26:19.774Z,97164.09
2019-01-11T12:28:45.627Z,97149.66
2019-01-11T12:31:11.651Z,97150.48
2019-01-11T12:33:37.477Z,97135.25
2019-01-11T12:36:03.318Z,97141.34
2019-01-11T12:38:29.147Z,97131.75
2019-01-11T12:40:55.042Z,97131.80
2019-01-11T12:43:20.866Z,97125.91
2019-01-11T12:45:46.697Z,97123.62
2019-01-11T12:48:12.515Z,97126.33
2019-01-11T12:50:38.354Z,97128.30
2019-01-11T12:53:04.288Z,97124.74
2019-01-11T12:55:30.225Z,97118.14
2019-01-11T12:57:56.023Z,97114.25
2019-01-11T13:00:21.855Z,97108.52
2019-01-11T13:02:47.708Z,97113.52
2019-01-11T13:05:16.124Z,97105.53
2019-01-11T13:07:41.952Z,97108.33
2019-01-11T13:10:10.800Z,97104.86
2019-01-11T13:12:36.847Z,97106.94
2019-01-11T13:15:09.154Z,97096.02
2019-01-11T13:17:35.069Z,97095.83
2019-01-11T13:20:00.890Z,97101.92
2019-01-11T13:22:26.818Z,97090.80
2019-01-11T13:24:52.638Z,97094.18
2019-01-11T13:27:18.485Z,97095.75
2019-01-11T13:29:44.309Z,97096.27
2019-01-11T13:32:10.158Z,97097.60
2019-01-11T13:34:35.982Z,97101.45
2019-01-11T13:37:01.923Z,97097.23
2019-01-11T13:39:27.737Z,97092.41
2019-01-11T13:41:53.584Z,97017.44
2019-01-11T13:44:19.444Z,97090.34
2019-01-11T13:46:45.257Z,97090.05
2019-01-11T13:49:11.114Z,97078.08
2019-01-11T13:51:37.027Z,97084.00
2019-01-11T13:54:03.350Z,97077.64
2019-01-11T13:56:29.194Z,97079.45
2019-01-11T13:58:55.044Z,97089.08
2019-01-11T14:01:20.887Z,97086.48
2019-01-11T14:03:46.681Z,97088.25
2019-01-11T14:06:12.508Z,97085.98
2019-01-11T14:08:38.337Z,97080.75
2019-01-11T14:11:04.192Z,97075.48
2019-01-11T14:13:30.082Z,97082.70
2019-01-11T14:15:55.954Z,97080.39
2019-01-11T14:18:21.828Z,97072.14
2019-01-11T14:20:47.786Z,97066.29
2019-01-11T14:23:13.617Z,97060.75
2019-01-11T14:25:39.485Z,97073.98
2019-01-11T14:28:05.348Z,97064.72
2019-01-11T14:30:31.198Z,97069.34
2019-01-11T14:32:57.015Z,97061.29
2019-01-11T14:35:22.979Z,97064.63
2019-01-11T14:37:48.814Z,97063.05
2019-01-11T14:40:15.164Z,97064.25
2019-01-11T14:42:41.109Z,97055.80
2019-01-11T14:45:09.749Z,97058.66
2019-01-11T14:47:35.609Z,97055.28
2019-01-11T14:50:03.164Z,96956.10
2019-01-11T14:52:29.013Z,97048.96
2019-01-11T14:54:54.827Z,97050.84
2019-01-11T14:57:20.775Z,97048.96
2019-01-11T14:59:46.646Z,97049.82
2019-01-11T15:02:12.488Z,97063.61
2019-01-11T15:04:38.532Z,97057.77
2019-01-11T15:07:04.407Z,97062.67
2019-01-11T15:09:30.293Z,97060.31
2019-01-11T15:11:56.187Z,97057.56
2019-01-11T15:14:22.018Z,97063.30
2019-01-11T15:16:48.096Z,97051.86
2019-01-11T15:19:15.656Z,97047.62
2019-01-11T15:21:41.621Z,97044.99
2019-01-11T15:24:07.464Z,97039.48
2019-01-11T15:26:33.315Z,97037.41
2019-01-11T15:28:59.191Z,97035.60
2019-01-11T15:31:25.029Z,97045.92
2019-01-11T15:33:50.891Z,97043.89
2019-01-11T15:36:16.748Z,97032.69
2019-01-11T15:38:42.902Z,97028.33
2019-01-11T15:41:08.842Z,97030.73
2019-01-11T15:43:34.681Z,97021.62
2019-01-11T15:46:00.914Z,97026.56
2019-01-11T15:48:44.534Z,97025.59
2019-01-11T15:51:10.687Z,97018.05
2019-01-11T15:53:36.762Z,97022.68
2019-01-11T15:56:04.274Z,97028.66
2019-01-11T15:58:30.384Z,97028.18
2019-01-11T16:00:56.211Z,97049.98
2019-01-11T16:03:22.056Z,97029.98
2019-01-11T16:05:51.728Z,97029.44
2019-01-11T16:08:17.584Z,97035.87
2019-01-11T16:11:08.052Z,97038.94
2019-01-11T16:13:37.604Z,97041.77
2019-01-11T16:16:06.562Z,97027.67
2019-01-11T16:18:32.415Z,97029.98
2019-01-11T16:20:58.268Z,97023.46
2019-01-11T16:23:24.234Z,97021.73
2019-01-11T16:25:50.089Z,97021.73
2019-01-11T16:28:16.018Z,97016.62
2019-01-11T16:30:41.936Z,97006.77
2019-01-11T16:33:07.748Z,97007.83
2019-01-11T16:35:33.566Z,97012.22
2019-01-11T16:37:59.424Z,97009.62
2019-01-11T16:40:25.264Z,97009.12
2019-01-11T16:42:51.121Z,97002.88
2019-01-11T16:45:17.069Z,97006.93
2019-01-11T16:47:43.007Z,97006.77
2019-01-11T16:50:17.146Z,97007.55
2019-01-11T16:52:46.409Z,97004.99
2019-01-11T16:55:11.022Z,97000.13
2019-01-11T16:57:36.930Z,97000.59
2019-01-11T17:00:09.801Z,97002.31
2019-01-11T17:02:36.741Z,97005.55
2019-01-11T17:05:05.675Z,97009.44
2019-01-11T17:07:31.506Z,97011.80
2019-01-11T17:09:57.356Z,97013.01
2019-01-11T17:12:23.181Z,97004.84
2019-01-11T17:14:49.032Z,97005.18
2019-01-11T17:17:15.374Z,97002.31
2019-01-11T17:19:41.224Z,96982.98
2019-01-11T17:22:07.058Z,96994.70
2019-01-11T17:24:32.899Z,96995.45
2019-01-11T17:26:58.708Z,96991.83
2019-01-11T17:29:24.561Z,96995.83
2019-01-11T17:31:50.390Z,96997.56
2019-01-11T17:34:16.219Z,96997.05
2019-01-11T17:36:42.056Z,96993.16
2019-01-11T17:39:08.010Z,96996.03
2019-01-11T17:41:33.821Z,96994.53
2019-01-11T17:43:59.662Z,96994.23
2019-01-11T17:46:25.487Z,96989.62
2019-01-11T17:48:51.302Z,96984.67
2019-01-11T17:51:17.134Z,96985.38
2019-01-11T17:53:42.985Z,96975.77
2019-01-11T17:56:08.817Z,96967.41
2019-01-11T17:58:35.865Z,96971.02
2019-01-11T18:01:01.696Z,96973.58
2019-01-11T18:03:27.556Z,96976.92
2019-01-11T18:05:53.409Z,96985.34
2019-01-11T18:08:19.236Z,96985.73
2019-01-11T18:10:45.103Z,96987.02
2019-01-11T18:13:10.966Z,96993.55
2019-01-11T18:15:36.834Z,96990.64
2019-01-11T18:18:02.869Z,96991.19
2019-01-11T18:20:28.731Z,96986.52
2019-01-11T18:22:54.604Z,96982.66
2019-01-11T18:25:20.530Z,96989.11
2019-01-11T18:27:46.393Z,96982.34
2019-01-11T18:30:14.343Z,96978.12
2019-01-11T18:32:40.727Z,96982.70
2019-01-11T18:35:06.768Z,96980.92
2019-01-11T18:37:32.633Z,96977.81
2019-01-11T18:39:58.487Z,96976.80
2019-01-11T18:42:24.346Z,96975.70
2019-01-11T18:44:50.196Z,96966.63
2019-01-11T18:47:16.372Z,96969.97
2019-01-11T18:49:42.203Z,96956.48
2019-01-11T18:52:08.028Z,96956.01
2019-01-11T18:54:33.889Z,96957.95
2019-01-11T18:56:59.833Z,96959.11
2019-01-11T18:59:25.695Z,96965.63
2019-01-11T19:01:51.564Z,96964.09
2019-01-11T19:04:17.416Z,96967.95
2019-01-11T19:06:43.277Z,96966.52
2019-01-11T19:09:09.134Z,96966.52
2019-01-11T19:11:35.081Z,96962.22
2019-01-11T19:14:00.921Z,96962.22
2019-01-11T19:16:26.760Z,96967.47
2019-01-11T19:18:52.673Z,96969.80
2019-01-11T19:21:18.590Z,96966.72
2019-01-11T19:23:44.773Z,96964.03
2019-01-11T19:26:10.654Z,96965.80
2019-01-11T19:28:39.768Z,96960.66
2019-01-11T19:31:05.887Z,96959.63
2019-01-11T19:33:31.753Z,96958.60
2019-01-11T19:35:57.657Z,96960.51
2019-01-11T19:38:23.559Z,96964.95
2019-01-11T19:40:49.393Z,96966.31
2019-01-11T19:43:15.250Z,96977.10
2019-01-11T19:45:41.276Z,96974.57
2019-01-11T19:48:07.238Z,96973.79
2019-01-11T19:50:33.212Z,96980.34
2019-01-11T19:52:59.076Z,96966.00
2019-01-11T19:55:24.941Z,96966.83
2019-01-11T19:57:50.797Z,96960.94
2019-01-11T20:00:21.792Z,96963.30
2019-01-11T20:02:47.837Z,96962.23
2019-01-11T20:05:14.612Z,96966.71
2019-01-11T20:07:40.531Z,96965.41
2019-01-11T20:10:10.267Z,96970.02
2019-01-11T20:12:36.122Z,96970.14
2019-01-11T20:15:03.060Z,96968.45
2019-01-11T20:17:29.482Z,96960.81
2019-01-11T20:19:55.483Z,96952.16
2019-01-11T20:22:21.357Z,96964.59
2019-01-11T20:24:47.405Z,96982.77
2019-01-11T20:27:13.359Z,96989.12
2019-01-11T20:29:39.171Z,96964.88
2019-01-11T20:32:05.075Z,96964.26
2019-01-11T20:34:30.912Z,96964.97
2019-01-11T20:37:02.721Z,96960.87
2019-01-11T20:39:28.596Z,96957.96
2019-01-11T20:41:54.435Z,96959.86
2019-01-11T20:44:20.289Z,96970.42
2019-01-11T20:46:46.164Z,96960.86
2019-01-11T20:49:12.159Z,96953.89
2019-01-11T20:51:37.985Z,96962.97
2019-01-11T20:54:04.256Z,96958.84
2019-01-11T20:56:31.526Z,96959.38
2019-01-11T20:58:57.537Z,96967.14
2019-01-11T21:01:23.394Z,96971.24
2019-01-11T21:03:51.171Z,96964.23
2019-01-11T21:06:17.015Z,96960.73
2019-01-11T21:08:42.842Z,96953.22
2019-01-11T21:11:08.690Z,96950.41
2019-01-11T21:13:34.727Z,96959.69
2019-01-11T21:16:01.176Z,96951.47
2019-01-11T21:18:27.055Z,96962.28
2019-01-11T21:20:52.944Z,96959.77
2019-01-11T21:23:18.789Z,96964.19
2019-01-11T21:25:44.680Z,96956.97
2019-01-11T21:28:10.536Z,96971.97
2019-01-11T21:30:36.380Z,96950.95
2019-01-11T21:33:03.012Z,96954.97
2019-01-11T21:35:29.023Z,96958.59
2019-01-11T21:37:55.035Z,96955.94
2019-01-11T21:40:20.881Z,96959.16
2019-01-11T21:42:46.874Z,96951.91
2019-01-11T21:45:12.864Z,96955.81
2019-01-11T21:47:38.771Z,96954.91
2019-01-11T21:50:11.036Z,96962.97
2019-01-11T21:52:36.902Z,96957.08
2019-01-11T21:55:04.755Z,96946.30
2019-01-11T21:57:30.651Z,96954.52
2019-01-11T21:59:56.457Z,96946.02
2019-01-11T22:02:22.346Z,96940.04
2019-01-11T22:04:48.141Z,96946.56
2019-01-11T22:07:13.972Z,96943.75
2019-01-11T22:09:39.808Z,96938.58
2019-01-11T22:12:05.640Z,96936.28
2019-01-11T22:14:31.516Z,96944.42
2019-01-11T22:16:57.478Z,96950.24
2019-01-11T22:19:24.995Z,96951.22
2019-01-11T22:21:50.830Z,96948.45
2019-01-11T22:24:16.670Z,96947.42
2019-01-11T22:26:42.516Z,96942.61
2019-01-11T22:29:08.389Z,96954.87
2019-01-11T22:31:34.224Z,96960.28
2019-01-11T22:34:00.083Z,96947.53
2019-01-11T22:36:25.899Z,96946.29
2019-01-11T22:38:51.709Z,96942.50
2019-01-11T22:41:17.948Z,96946.10
2019-01-11T22:43:43.871Z,96945.13
2019-01-11T22:46:09.702Z,96945.75
2019-01-11T22:48:35.549Z,96946.02
2019-01-11T22:51:01.375Z,96934.86
2019-01-11T22:53:27.204Z,96934.12
2019-01-11T22:55:53.049Z,96935.23
2019-01-11T22:58:18.891Z,96929.20
2019-01-11T23:00:51.363Z,96926.62
2019-01-11T23:03:24.014Z,96941.36
2019-01-11T23:05:53.954Z,96926.16
2019-01-11T23:08:19.801Z,96931.41
2019-01-11T23:11:01.563Z,96929.28
2019-01-11T23:13:27.406Z,96924.33
2019-01-11T23:15:53.439Z,96922.34
2019-01-11T23:18:19.380Z,96928.86
2019-01-11T23:20:45.413Z,96932.48
2019-01-11T23:23:11.276Z,96930.50
2019-01-11T23:25:37.087Z,96936.90
2019-01-11T23:28:03.049Z,96933.59
2019-01-11T23:30:28.909Z,96936.50
2019-01-11T23:32:54.734Z,96931.84
2019-01-11T23:35:20.552Z,96929.83
2019-01-11T23:37:46.389Z,96946.23
2019-01-11T23:40:12.709Z,96943.14
2019-01-11T23:42:38.566Z,96945.22
2019-01-11T23:45:07.700Z,96939.23
2019-01-11T23:47:33.530Z,96932.20
2019-01-11T23:49:59.392Z,96945.22
2019-01-11T23:52:27.690Z,96938.72
2019-01-11T23:54:53.529Z,96940.02
2019-01-11T23:57:19.367Z,96946.54
2019-01-11T23:59:45.211Z,96943.23
